Lady Fell — TSNU — position and weather

sailwx.info

Track history (hours):
 
Tides and Currents Weather Stations Pressure Air Temp Water Temp Dewpoint Dewpoint Depression Visibility Wind Speed Wind Dir Waves Ship Positions

Lady Fell

Last reported at 2014-Dec-07 05:09 UTC. Time now 2014-Dec-22 17:04 UTC.
Position N 39°30' E 010°14'.
Warning: this ship's position is 15 days out of date.

Length 166 m; draft 7.3 m.

Type: Tanker. MMSI: 672564000.

Date/timePositionNaut miles runAvg speedWind from/ knotsBaromVisibWave heightAir tempDewpointWater temp
2014-Dec-07 05:09N 39°30' E 010°14'7911.3
2014-Dec-06 22:10N 40°49' E 010°14'15111.1
2014-Dec-06 08:33N 43°16' E 009°35'1111.4
2014-Dec-06 07:33N 43°27' E 009°31'1010.4
2014-Dec-06 06:33N 43°37' E 009°26'1010.3
2014-Dec-06 05:33N 43°46' E 009°20'1010.3
2014-Dec-06 04:33N 43°55' E 009°13'1110.8
2014-Dec-06 03:33N 44°05' E 009°07'1111.1
2014-Dec-06 02:34N 44°15' E 009°01'9 9.2
2014-Dec-06 01:33N 44°24' E 008°55'0 0.3
2014-Dec-06 00:33N 44°24' E 008°55'0 0.0
2014-Dec-05 23:33N 44°24' E 008°55'0 0.0
2014-Dec-05 22:21N 44°24' E 008°55'0 0.0
2014-Dec-05 21:32N 44°24' E 008°55'0 0.0
2014-Dec-05 20:32N 44°24' E 008°55'0 0.0
2014-Dec-05 19:26N 44°24' E 008°55'0 0.0
2014-Dec-05 18:32N 44°24' E 008°55'0 0.0
2014-Dec-05 17:26N 44°24' E 008°55'0 0.0
2014-Dec-05 16:26N 44°24' E 008°55'0 0.0
2014-Dec-05 15:20N 44°24' E 008°55'0 0.0
2014-Dec-05 13:20N 44°24' E 008°55'0 0.0
2014-Dec-05 12:26N 44°24' E 008°55'0 0.0
2014-Dec-05 11:26N 44°24' E 008°55'0 0.0
2014-Dec-05 10:32N 44°24' E 008°55'0 0.0
2014-Dec-05 09:26N 44°24' E 008°55'0 0.0
2014-Dec-05 08:32N 44°24' E 008°55'0 0.0
2014-Dec-05 07:32N 44°24' E 008°55'0 0.0
2014-Dec-05 06:32N 44°24' E 008°55'0 0.0
2014-Dec-05 05:33N 44°24' E 008°55'2 2.5
2014-Dec-05 04:33N 44°22' E 008°57'3 3.1
2014-Dec-05 03:33N 44°19' E 008°59'7 6.9
2014-Dec-05 02:33N 44°13' E 008°55'3 2.6
2014-Dec-05 01:33N 44°10' E 008°54'1 0.7
2014-Dec-05 00:33N 44°11' E 008°54'1 0.6
2014-Dec-04 23:33N 44°12' E 008°54'1 0.6
2014-Dec-04 22:33N 44°12' E 008°54'1 0.9
2014-Dec-04 21:33N 44°13' E 008°54'1 0.8
2014-Dec-04 20:33N 44°14' E 008°54'1 0.8
2014-Dec-04 19:33N 44°15' E 008°54'1 0.9
2014-Dec-04 18:33N 44°16' E 008°54'7 6.6
2014-Dec-04 17:33N 44°10' E 008°57'1110.5
2014-Dec-04 16:33N 43°59' E 008°59'1111.0
2014-Dec-04 15:33N 43°48' E 008°59'1111.1
2014-Dec-04 14:33N 43°37' E 008°59'9 9.4
2014-Dec-04 13:33N 43°29' E 008°54'1110.0
2014-Dec-04 12:29N 43°28' E 008°39'70 9.7
2014-Dec-04 05:15N 42°52' E 007°16'7 9.9
2014-Dec-04 04:33N 42°48' E 007°09'9810.5
2014-Dec-03 19:12N 41°48' E 005°24'18 9.9
2014-Dec-03 17:24N 41°37' E 005°05'19 9.7
2014-Dec-03 15:25N 41°25' E 004°45'11 9.2
2014-Dec-03 14:14N 41°19' E 004°33'8 8.6
2014-Dec-03 13:20N 41°14' E 004°25'15 8.4
2014-Dec-03 11:29N 41°05' E 004°09'38 7.4
2014-Dec-03 06:25N 40°41' E 003°30'8 9.0
2014-Dec-03 05:33N 40°37' E 003°21'9 9.4
2014-Dec-03 04:33N 40°31' E 003°12'10 9.6
2014-Dec-03 03:33N 40°25' E 003°02'1010.0
2014-Dec-03 02:33N 40°19' E 002°51'1110.5
2014-Dec-03 01:33N 40°12' E 002°41'1110.8
2014-Dec-03 00:33N 40°06' E 002°29'1110.8
2014-Dec-02 23:33N 39°59' E 002°18'1110.6
2014-Dec-02 22:33N 39°53' E 002°07'1110.6
2014-Dec-02 21:33N 39°46' E 001°56'1010.4
2014-Dec-02 20:33N 39°40' E 001°46'1010.1
2014-Dec-02 19:33N 39°34' E 001°35'10 9.8
2014-Dec-02 18:33N 39°28' E 001°25'10 9.6
2014-Dec-02 17:33N 39°22' E 001°15'9 9.4
2014-Dec-02 16:33N 39°16' E 001°06'127 8.3
2014-Dec-02 01:17N 37°29' W 000°23'17 8.8
2014-Dec-01 23:23N 37°16' W 000°36'8 9.5
2014-Dec-01 22:31N 37°12' W 000°45'22610.5
2014-Dec-01 01:03N 36°00' W 005°11'612.5
2014-Dec-01 00:33N 35°60' W 005°19'  
Track history (hours):
 
Tides and Currents Weather Stations Pressure Air Temp Water Temp Dewpoint Dewpoint Depression Visibility Wind Speed Wind Dir Waves Ship Positions

Lady Fell

Last reported at 2014-Dec-07 05:09 UTC. Time now 2014-Dec-22 17:04 UTC.
Position N 39°30' E 010°14'.
Warning: this ship's position is 15 days out of date.

Length 166 m; draft 7.3 m.

Type: Tanker. MMSI: 672564000.

Date/timePositionNaut miles runAvg speedWind from/ knotsBaromVisibWave heightAir tempDewpointWater temp
2014-Dec-07 05:09N 39°30' E 010°14'7911.3
2014-Dec-06 22:10N 40°49' E 010°14'15111.1
2014-Dec-06 08:33N 43°16' E 009°35'1111.4
2014-Dec-06 07:33N 43°27' E 009°31'1010.4
2014-Dec-06 06:33N 43°37' E 009°26'1010.3
2014-Dec-06 05:33N 43°46' E 009°20'1010.3
2014-Dec-06 04:33N 43°55' E 009°13'1110.8
2014-Dec-06 03:33N 44°05' E 009°07'1111.1
2014-Dec-06 02:34N 44°15' E 009°01'9 9.2
2014-Dec-06 01:33N 44°24' E 008°55'0 0.3
2014-Dec-06 00:33N 44°24' E 008°55'0 0.0
2014-Dec-05 23:33N 44°24' E 008°55'0 0.0
2014-Dec-05 22:21N 44°24' E 008°55'0 0.0
2014-Dec-05 21:32N 44°24' E 008°55'0 0.0
2014-Dec-05 20:32N 44°24' E 008°55'0 0.0
2014-Dec-05 19:26N 44°24' E 008°55'0 0.0
2014-Dec-05 18:32N 44°24' E 008°55'0 0.0
2014-Dec-05 17:26N 44°24' E 008°55'0 0.0
2014-Dec-05 16:26N 44°24' E 008°55'0 0.0
2014-Dec-05 15:20N 44°24' E 008°55'0 0.0
2014-Dec-05 13:20N 44°24' E 008°55'0 0.0
2014-Dec-05 12:26N 44°24' E 008°55'0 0.0
2014-Dec-05 11:26N 44°24' E 008°55'0 0.0
2014-Dec-05 10:32N 44°24' E 008°55'0 0.0
2014-Dec-05 09:26N 44°24' E 008°55'0 0.0
2014-Dec-05 08:32N 44°24' E 008°55'0 0.0
2014-Dec-05 07:32N 44°24' E 008°55'0 0.0
2014-Dec-05 06:32N 44°24' E 008°55'0 0.0
2014-Dec-05 05:33N 44°24' E 008°55'2 2.5
2014-Dec-05 04:33N 44°22' E 008°57'3 3.1
2014-Dec-05 03:33N 44°19' E 008°59'7 6.9
2014-Dec-05 02:33N 44°13' E 008°55'3 2.6
2014-Dec-05 01:33N 44°10' E 008°54'1 0.7
2014-Dec-05 00:33N 44°11' E 008°54'1 0.6
2014-Dec-04 23:33N 44°12' E 008°54'1 0.6
2014-Dec-04 22:33N 44°12' E 008°54'1 0.9
2014-Dec-04 21:33N 44°13' E 008°54'1 0.8
2014-Dec-04 20:33N 44°14' E 008°54'1 0.8
2014-Dec-04 19:33N 44°15' E 008°54'1 0.9
2014-Dec-04 18:33N 44°16' E 008°54'7 6.6
2014-Dec-04 17:33N 44°10' E 008°57'1110.5
2014-Dec-04 16:33N 43°59' E 008°59'1111.0
2014-Dec-04 15:33N 43°48' E 008°59'1111.1
2014-Dec-04 14:33N 43°37' E 008°59'9 9.4
2014-Dec-04 13:33N 43°29' E 008°54'1110.0
2014-Dec-04 12:29N 43°28' E 008°39'70 9.7
2014-Dec-04 05:15N 42°52' E 007°16'7 9.9
2014-Dec-04 04:33N 42°48' E 007°09'9810.5
2014-Dec-03 19:12N 41°48' E 005°24'18 9.9
2014-Dec-03 17:24N 41°37' E 005°05'19 9.7
2014-Dec-03 15:25N 41°25' E 004°45'11 9.2
2014-Dec-03 14:14N 41°19' E 004°33'8 8.6
2014-Dec-03 13:20N 41°14' E 004°25'15 8.4
2014-Dec-03 11:29N 41°05' E 004°09'38 7.4
2014-Dec-03 06:25N 40°41' E 003°30'8 9.0
2014-Dec-03 05:33N 40°37' E 003°21'9 9.4
2014-Dec-03 04:33N 40°31' E 003°12'10 9.6
2014-Dec-03 03:33N 40°25' E 003°02'1010.0
2014-Dec-03 02:33N 40°19' E 002°51'1110.5
2014-Dec-03 01:33N 40°12' E 002°41'1110.8
2014-Dec-03 00:33N 40°06' E 002°29'1110.8
2014-Dec-02 23:33N 39°59' E 002°18'1110.6
2014-Dec-02 22:33N 39°53' E 002°07'1110.6
2014-Dec-02 21:33N 39°46' E 001°56'1010.4
2014-Dec-02 20:33N 39°40' E 001°46'1010.1
2014-Dec-02 19:33N 39°34' E 001°35'10 9.8
2014-Dec-02 18:33N 39°28' E 001°25'10 9.6
2014-Dec-02 17:33N 39°22' E 001°15'9 9.4
2014-Dec-02 16:33N 39°16' E 001°06'127 8.3
2014-Dec-02 01:17N 37°29' W 000°23'17 8.8
2014-Dec-01 23:23N 37°16' W 000°36'8 9.5
2014-Dec-01 22:31N 37°12' W 000°45'22610.5
2014-Dec-01 01:03N 36°00' W 005°11'612.5
2014-Dec-01 00:33N 35°60' W 005°19'  

Dump ship's entire track history